sensor_id;sensor_type;location;lat;lon;timestamp;P1;durP1;ratioP1;P2;durP2;ratioP2
34212;SDS011;20477;51.390;8.102;2024-03-06T00:00:04;68.82;;;35.90;;
34212;SDS011;20477;51.390;8.102;2024-03-06T00:02:31;62.40;;;35.83;;
34212;SDS011;20477;51.390;8.102;2024-03-06T00:04:59;65.00;;;37.05;;
34212;SDS011;20477;51.390;8.102;2024-03-06T00:07:27;69.20;;;35.80;;
34212;SDS011;20477;51.390;8.102;2024-03-06T00:09:54;67.55;;;36.90;;
34212;SDS011;20477;51.390;8.102;2024-03-06T00:12:21;74.40;;;39.38;;
34212;SDS011;20477;51.390;8.102;2024-03-06T00:14:49;68.15;;;37.92;;
34212;SDS011;20477;51.390;8.102;2024-03-06T00:17:17;69.80;;;37.70;;
34212;SDS011;20477;51.390;8.102;2024-03-06T00:19:45;69.53;;;39.75;;
34212;SDS011;20477;51.390;8.102;2024-03-06T00:22:12;75.38;;;38.83;;
34212;SDS011;20477;51.390;8.102;2024-03-06T00:24:39;73.38;;;38.45;;
34212;SDS011;20477;51.390;8.102;2024-03-06T00:27:06;69.82;;;39.53;;
34212;SDS011;20477;51.390;8.102;2024-03-06T00:29:34;68.32;;;37.33;;
34212;SDS011;20477;51.390;8.102;2024-03-06T00:32:01;70.22;;;38.50;;
34212;SDS011;20477;51.390;8.102;2024-03-06T00:34:30;67.75;;;37.55;;
34212;SDS011;20477;51.390;8.102;2024-03-06T00:36:57;64.82;;;35.22;;
34212;SDS011;20477;51.390;8.102;2024-03-06T00:39:24;66.78;;;35.58;;
34212;SDS011;20477;51.390;8.102;2024-03-06T00:41:51;70.63;;;38.78;;
34212;SDS011;20477;51.390;8.102;2024-03-06T00:44:19;76.53;;;40.35;;
34212;SDS011;20477;51.390;8.102;2024-03-06T00:46:46;67.85;;;37.17;;
34212;SDS011;20477;51.390;8.102;2024-03-06T00:49:13;72.47;;;38.05;;
34212;SDS011;20477;51.390;8.102;2024-03-06T00:51:42;70.75;;;37.92;;
34212;SDS011;20477;51.390;8.102;2024-03-06T00:54:14;72.85;;;38.47;;
34212;SDS011;20477;51.390;8.102;2024-03-06T00:56:42;77.78;;;39.25;;
34212;SDS011;20477;51.390;8.102;2024-03-06T00:59:09;73.18;;;38.30;;
34212;SDS011;20477;51.390;8.102;2024-03-06T01:01:36;74.05;;;37.65;;
34212;SDS011;20477;51.390;8.102;2024-03-06T01:04:04;72.00;;;37.40;;
34212;SDS011;20477;51.390;8.102;2024-03-06T01:06:31;68.40;;;36.40;;
34212;SDS011;20477;51.390;8.102;2024-03-06T01:09:00;65.70;;;34.55;;
34212;SDS011;20477;51.390;8.102;2024-03-06T01:11:27;60.55;;;33.25;;
34212;SDS011;20477;51.390;8.102;2024-03-06T01:13:55;66.72;;;34.50;;
34212;SDS011;20477;51.390;8.102;2024-03-06T01:16:23;66.70;;;34.88;;
34212;SDS011;20477;51.390;8.102;2024-03-06T01:18:50;60.00;;;34.53;;
34212;SDS011;20477;51.390;8.102;2024-03-06T01:21:17;65.35;;;32.83;;
34212;SDS011;20477;51.390;8.102;2024-03-06T01:23:44;65.13;;;33.30;;
34212;SDS011;20477;51.390;8.102;2024-03-06T01:26:13;67.22;;;34.40;;
34212;SDS011;20477;51.390;8.102;2024-03-06T01:28:41;64.75;;;34.28;;
34212;SDS011;20477;51.390;8.102;2024-03-06T01:31:08;61.33;;;33.65;;
34212;SDS011;20477;51.390;8.102;2024-03-06T01:33:35;62.72;;;34.03;;
34212;SDS011;20477;51.390;8.102;2024-03-06T01:36:02;64.72;;;34.65;;
34212;SDS011;20477;51.390;8.102;2024-03-06T01:38:30;62.35;;;35.38;;
34212;SDS011;20477;51.390;8.102;2024-03-06T01:40:57;64.60;;;34.47;;
34212;SDS011;20477;51.390;8.102;2024-03-06T01:43:26;64.75;;;34.38;;
34212;SDS011;20477;51.390;8.102;2024-03-06T01:45:54;69.78;;;35.05;;
34212;SDS011;20477;51.390;8.102;2024-03-06T01:48:21;71.25;;;36.83;;
34212;SDS011;20477;51.390;8.102;2024-03-06T01:50:50;65.78;;;33.95;;
34212;SDS011;20477;51.390;8.102;2024-03-06T01:53:17;73.28;;;36.88;;
34212;SDS011;20477;51.390;8.102;2024-03-06T01:55:45;63.47;;;33.75;;
34212;SDS011;20477;51.390;8.102;2024-03-06T01:58:13;71.85;;;35.80;;
34212;SDS011;20477;51.390;8.102;2024-03-06T02:00:42;61.65;;;35.40;;
34212;SDS011;20477;51.390;8.102;2024-03-06T02:03:10;60.60;;;33.60;;
34212;SDS011;20477;51.390;8.102;2024-03-06T02:05:41;68.65;;;34.03;;
34212;SDS011;20477;51.390;8.102;2024-03-06T02:08:08;66.05;;;34.47;;
34212;SDS011;20477;51.390;8.102;2024-03-06T02:10:36;60.80;;;34.05;;
34212;SDS011;20477;51.390;8.102;2024-03-06T02:13:03;60.45;;;33.47;;
34212;SDS011;20477;51.390;8.102;2024-03-06T02:15:31;66.32;;;34.45;;
34212;SDS011;20477;51.390;8.102;2024-03-06T02:18:02;54.85;;;32.47;;
34212;SDS011;20477;51.390;8.102;2024-03-06T02:20:33;59.00;;;33.97;;
34212;SDS011;20477;51.390;8.102;2024-03-06T02:23:00;55.60;;;31.48;;
34212;SDS011;20477;51.390;8.102;2024-03-06T02:25:27;58.85;;;31.50;;
34212;SDS011;20477;51.390;8.102;2024-03-06T02:27:55;54.88;;;32.47;;
34212;SDS011;20477;51.390;8.102;2024-03-06T02:30:22;55.72;;;31.75;;
34212;SDS011;20477;51.390;8.102;2024-03-06T02:32:49;60.85;;;32.38;;
34212;SDS011;20477;51.390;8.102;2024-03-06T02:35:16;64.28;;;36.00;;
34212;SDS011;20477;51.390;8.102;2024-03-06T02:37:46;60.13;;;34.88;;
34212;SDS011;20477;51.390;8.102;2024-03-06T02:40:13;61.25;;;31.98;;
34212;SDS011;20477;51.390;8.102;2024-03-06T02:42:40;61.78;;;34.08;;
34212;SDS011;20477;51.390;8.102;2024-03-06T02:45:08;64.18;;;34.63;;
34212;SDS011;20477;51.390;8.102;2024-03-06T02:47:35;68.82;;;34.70;;
34212;SDS011;20477;51.390;8.102;2024-03-06T02:50:03;60.83;;;34.03;;
34212;SDS011;20477;51.390;8.102;2024-03-06T02:52:30;66.43;;;34.50;;
34212;SDS011;20477;51.390;8.102;2024-03-06T02:54:59;61.88;;;34.30;;
34212;SDS011;20477;51.390;8.102;2024-03-06T02:57:26;67.10;;;35.58;;
34212;SDS011;20477;51.390;8.102;2024-03-06T02:59:54;72.28;;;38.17;;
34212;SDS011;20477;51.390;8.102;2024-03-06T03:02:22;80.53;;;39.63;;
34212;SDS011;20477;51.390;8.102;2024-03-06T03:04:49;69.10;;;36.28;;
34212;SDS011;20477;51.390;8.102;2024-03-06T03:07:17;73.05;;;36.15;;
34212;SDS011;20477;51.390;8.102;2024-03-06T03:09:44;70.95;;;37.67;;
34212;SDS011;20477;51.390;8.102;2024-03-06T03:12:13;65.28;;;36.30;;
34212;SDS011;20477;51.390;8.102;2024-03-06T03:14:40;68.07;;;36.30;;
34212;SDS011;20477;51.390;8.102;2024-03-06T03:17:07;63.90;;;35.40;;
34212;SDS011;20477;51.390;8.102;2024-03-06T03:19:35;65.43;;;34.75;;
34212;SDS011;20477;51.390;8.102;2024-03-06T03:22:02;63.70;;;36.33;;
34212;SDS011;20477;51.390;8.102;2024-03-06T03:24:29;62.80;;;34.70;;
34212;SDS011;20477;51.390;8.102;2024-03-06T03:26:56;74.30;;;34.65;;
34212;SDS011;20477;51.390;8.102;2024-03-06T03:29:25;59.38;;;32.60;;
34212;SDS011;20477;51.390;8.102;2024-03-06T03:31:52;63.42;;;34.60;;
34212;SDS011;20477;51.390;8.102;2024-03-06T03:34:20;63.20;;;35.13;;
34212;SDS011;20477;51.390;8.102;2024-03-06T03:36:47;63.03;;;34.33;;
34212;SDS011;20477;51.390;8.102;2024-03-06T03:39:14;64.70;;;34.55;;
34212;SDS011;20477;51.390;8.102;2024-03-06T03:41:44;69.10;;;35.50;;
34212;SDS011;20477;51.390;8.102;2024-03-06T03:44:12;68.28;;;35.35;;
34212;SDS011;20477;51.390;8.102;2024-03-06T03:46:41;69.72;;;36.15;;
34212;SDS011;20477;51.390;8.102;2024-03-06T03:49:08;69.78;;;34.92;;
34212;SDS011;20477;51.390;8.102;2024-03-06T03:51:38;62.97;;;34.15;;
34212;SDS011;20477;51.390;8.102;2024-03-06T03:54:05;67.07;;;34.58;;
34212;SDS011;20477;51.390;8.102;2024-03-06T03:56:33;69.30;;;35.22;;
34212;SDS011;20477;51.390;8.102;2024-03-06T03:59:00;74.47;;;34.67;;
34212;SDS011;20477;51.390;8.102;2024-03-06T04:01:28;64.38;;;34.30;;
34212;SDS011;20477;51.390;8.102;2024-03-06T04:03:57;65.45;;;34.78;;
34212;SDS011;20477;51.390;8.102;2024-03-06T04:06:24;61.38;;;34.25;;
34212;SDS011;20477;51.390;8.102;2024-03-06T04:08:51;61.38;;;32.92;;
34212;SDS011;20477;51.390;8.102;2024-03-06T04:11:18;62.05;;;33.13;;
34212;SDS011;20477;51.390;8.102;2024-03-06T04:13:49;67.15;;;34.58;;
34212;SDS011;20477;51.390;8.102;2024-03-06T04:16:16;66.28;;;34.33;;
34212;SDS011;20477;51.390;8.102;2024-03-06T04:18:44;58.15;;;32.45;;
34212;SDS011;20477;51.390;8.102;2024-03-06T04:21:12;57.58;;;31.73;;
34212;SDS011;20477;51.390;8.102;2024-03-06T04:23:40;60.58;;;32.45;;
34212;SDS011;20477;51.390;8.102;2024-03-06T04:26:08;63.40;;;33.65;;
34212;SDS011;20477;51.390;8.102;2024-03-06T04:28:35;62.97;;;31.10;;
34212;SDS011;20477;51.390;8.102;2024-03-06T04:31:04;67.05;;;33.15;;
34212;SDS011;20477;51.390;8.102;2024-03-06T04:33:31;59.00;;;31.58;;
34212;SDS011;20477;51.390;8.102;2024-03-06T04:36:00;58.13;;;30.35;;
34212;SDS011;20477;51.390;8.102;2024-03-06T04:38:29;56.47;;;31.50;;
34212;SDS011;20477;51.390;8.102;2024-03-06T04:40:56;58.08;;;32.40;;
34212;SDS011;20477;51.390;8.102;2024-03-06T04:43:23;59.22;;;31.63;;
34212;SDS011;20477;51.390;8.102;2024-03-06T04:45:51;64.10;;;32.88;;
34212;SDS011;20477;51.390;8.102;2024-03-06T04:48:18;66.20;;;33.55;;
34212;SDS011;20477;51.390;8.102;2024-03-06T04:50:45;62.03;;;34.55;;
34212;SDS011;20477;51.390;8.102;2024-03-06T04:53:13;63.72;;;32.40;;
34212;SDS011;20477;51.390;8.102;2024-03-06T04:55:41;63.92;;;33.17;;
34212;SDS011;20477;51.390;8.102;2024-03-06T04:58:09;59.97;;;32.17;;
34212;SDS011;20477;51.390;8.102;2024-03-06T05:00:36;58.63;;;32.92;;
34212;SDS011;20477;51.390;8.102;2024-03-06T05:03:03;62.58;;;33.85;;
34212;SDS011;20477;51.390;8.102;2024-03-06T05:05:48;64.90;;;34.60;;
34212;SDS011;20477;51.390;8.102;2024-03-06T05:08:33;57.05;;;31.90;;
34212;SDS011;20477;51.390;8.102;2024-03-06T05:11:20;57.17;;;32.33;;
34212;SDS011;20477;51.390;8.102;2024-03-06T05:14:04;58.50;;;33.45;;
34212;SDS011;20477;51.390;8.102;2024-03-06T05:16:49;67.60;;;34.03;;
34212;SDS011;20477;51.390;8.102;2024-03-06T05:19:33;58.78;;;32.40;;
34212;SDS011;20477;51.390;8.102;2024-03-06T05:22:18;64.13;;;34.10;;
34212;SDS011;20477;51.390;8.102;2024-03-06T05:25:03;72.40;;;36.17;;
34212;SDS011;20477;51.390;8.102;2024-03-06T05:27:49;69.45;;;37.22;;
34212;SDS011;20477;51.390;8.102;2024-03-06T05:30:34;66.45;;;35.47;;
34212;SDS011;20477;51.390;8.102;2024-03-06T05:33:19;75.25;;;37.13;;
34212;SDS011;20477;51.390;8.102;2024-03-06T05:36:04;69.43;;;37.13;;
34212;SDS011;20477;51.390;8.102;2024-03-06T05:38:48;71.45;;;35.17;;
34212;SDS011;20477;51.390;8.102;2024-03-06T05:41:33;69.32;;;36.30;;
34212;SDS011;20477;51.390;8.102;2024-03-06T05:44:19;75.78;;;36.47;;
34212;SDS011;20477;51.390;8.102;2024-03-06T05:47:04;75.68;;;37.70;;
34212;SDS011;20477;51.390;8.102;2024-03-06T05:49:49;77.28;;;37.83;;
34212;SDS011;20477;51.390;8.102;2024-03-06T05:52:33;77.80;;;37.75;;
34212;SDS011;20477;51.390;8.102;2024-03-06T05:55:18;71.05;;;36.72;;
34212;SDS011;20477;51.390;8.102;2024-03-06T05:58:03;73.20;;;36.15;;
34212;SDS011;20477;51.390;8.102;2024-03-06T06:00:35;70.20;;;35.80;;
34212;SDS011;20477;51.390;8.102;2024-03-06T06:03:02;69.78;;;36.05;;
34212;SDS011;20477;51.390;8.102;2024-03-06T06:05:30;69.22;;;34.90;;
34212;SDS011;20477;51.390;8.102;2024-03-06T06:07:57;67.22;;;35.50;;
34212;SDS011;20477;51.390;8.102;2024-03-06T06:10:24;70.10;;;35.60;;
34212;SDS011;20477;51.390;8.102;2024-03-06T06:12:51;65.75;;;35.90;;
34212;SDS011;20477;51.390;8.102;2024-03-06T06:15:19;68.35;;;35.85;;
34212;SDS011;20477;51.390;8.102;2024-03-06T06:17:48;70.85;;;35.72;;
34212;SDS011;20477;51.390;8.102;2024-03-06T06:20:15;64.32;;;33.60;;
34212;SDS011;20477;51.390;8.102;2024-03-06T06:22:43;60.10;;;33.58;;
34212;SDS011;20477;51.390;8.102;2024-03-06T06:25:11;66.43;;;33.70;;
34212;SDS011;20477;51.390;8.102;2024-03-06T06:27:38;62.80;;;34.92;;
34212;SDS011;20477;51.390;8.102;2024-03-06T06:30:06;58.97;;;33.63;;
34212;SDS011;20477;51.390;8.102;2024-03-06T06:32:33;61.33;;;34.63;;
34212;SDS011;20477;51.390;8.102;2024-03-06T06:35:03;59.78;;;32.22;;
34212;SDS011;20477;51.390;8.102;2024-03-06T06:37:30;59.20;;;32.22;;
34212;SDS011;20477;51.390;8.102;2024-03-06T06:39:57;62.17;;;32.45;;
34212;SDS011;20477;51.390;8.102;2024-03-06T06:42:25;59.50;;;32.25;;
34212;SDS011;20477;51.390;8.102;2024-03-06T06:44:52;64.28;;;34.88;;
34212;SDS011;20477;51.390;8.102;2024-03-06T06:47:19;60.42;;;33.05;;
34212;SDS011;20477;51.390;8.102;2024-03-06T06:49:46;60.90;;;34.92;;
34212;SDS011;20477;51.390;8.102;2024-03-06T06:52:16;65.75;;;34.42;;
34212;SDS011;20477;51.390;8.102;2024-03-06T06:54:45;63.38;;;35.05;;
34212;SDS011;20477;51.390;8.102;2024-03-06T06:57:12;66.55;;;35.47;;
34212;SDS011;20477;51.390;8.102;2024-03-06T06:59:40;68.75;;;34.13;;
34212;SDS011;20477;51.390;8.102;2024-03-06T07:02:07;63.53;;;34.05;;
34212;SDS011;20477;51.390;8.102;2024-03-06T07:04:34;68.40;;;33.90;;
34212;SDS011;20477;51.390;8.102;2024-03-06T07:07:02;69.07;;;36.65;;
34212;SDS011;20477;51.390;8.102;2024-03-06T07:09:30;66.25;;;34.10;;
34212;SDS011;20477;51.390;8.102;2024-03-06T07:11:58;64.72;;;35.15;;
34212;SDS011;20477;51.390;8.102;2024-03-06T07:14:25;62.30;;;36.67;;
34212;SDS011;20477;51.390;8.102;2024-03-06T07:16:52;64.55;;;34.67;;
34212;SDS011;20477;51.390;8.102;2024-03-06T07:19:19;57.92;;;33.08;;
34212;SDS011;20477;51.390;8.102;2024-03-06T07:21:47;62.78;;;33.80;;
34212;SDS011;20477;51.390;8.102;2024-03-06T07:24:14;62.40;;;34.55;;
34212;SDS011;20477;51.390;8.102;2024-03-06T07:26:43;61.45;;;34.45;;
34212;SDS011;20477;51.390;8.102;2024-03-06T07:29:10;61.53;;;33.60;;
34212;SDS011;20477;51.390;8.102;2024-03-06T07:31:38;63.65;;;35.15;;
34212;SDS011;20477;51.390;8.102;2024-03-06T07:34:06;60.15;;;35.47;;
34212;SDS011;20477;51.390;8.102;2024-03-06T07:36:33;63.15;;;33.88;;
34212;SDS011;20477;51.390;8.102;2024-03-06T07:39:01;62.38;;;35.45;;
34212;SDS011;20477;51.390;8.102;2024-03-06T07:41:28;63.00;;;35.08;;
34212;SDS011;20477;51.390;8.102;2024-03-06T07:43:57;59.45;;;33.33;;
34212;SDS011;20477;51.390;8.102;2024-03-06T07:46:24;62.53;;;34.42;;
34212;SDS011;20477;51.390;8.102;2024-03-06T07:48:51;61.47;;;34.53;;
34212;SDS011;20477;51.390;8.102;2024-03-06T07:51:18;60.45;;;33.45;;
34212;SDS011;20477;51.390;8.102;2024-03-06T07:53:46;62.40;;;34.45;;
34212;SDS011;20477;51.390;8.102;2024-03-06T07:56:13;54.72;;;31.63;;
34212;SDS011;20477;51.390;8.102;2024-03-06T07:58:40;54.30;;;32.13;;
34212;SDS011;20477;51.390;8.102;2024-03-06T08:01:09;56.80;;;33.90;;
34212;SDS011;20477;51.390;8.102;2024-03-06T08:03:38;60.33;;;35.00;;
34212;SDS011;20477;51.390;8.102;2024-03-06T08:06:05;62.95;;;36.33;;
34212;SDS011;20477;51.390;8.102;2024-03-06T08:08:33;54.47;;;33.20;;
34212;SDS011;20477;51.390;8.102;2024-03-06T08:11:00;58.65;;;33.25;;
34212;SDS011;20477;51.390;8.102;2024-03-06T08:13:28;55.35;;;33.53;;
34212;SDS011;20477;51.390;8.102;2024-03-06T08:15:55;61.63;;;35.25;;
34212;SDS011;20477;51.390;8.102;2024-03-06T08:18:23;59.28;;;34.05;;
34212;SDS011;20477;51.390;8.102;2024-03-06T08:20:51;59.35;;;35.17;;
34212;SDS011;20477;51.390;8.102;2024-03-06T08:23:18;58.10;;;35.13;;
34212;SDS011;20477;51.390;8.102;2024-03-06T08:25:45;59.30;;;33.30;;
34212;SDS011;20477;51.390;8.102;2024-03-06T08:28:13;56.20;;;33.78;;
34212;SDS011;20477;51.390;8.102;2024-03-06T08:30:40;58.83;;;35.50;;
34212;SDS011;20477;51.390;8.102;2024-03-06T08:33:07;53.78;;;32.22;;
34212;SDS011;20477;51.390;8.102;2024-03-06T08:35:36;54.13;;;33.38;;
34212;SDS011;20477;51.390;8.102;2024-03-06T08:38:04;55.13;;;34.40;;
34212;SDS011;20477;51.390;8.102;2024-03-06T08:40:31;53.15;;;32.25;;
34212;SDS011;20477;51.390;8.102;2024-03-06T08:42:58;57.47;;;33.28;;
34212;SDS011;20477;51.390;8.102;2024-03-06T08:45:26;58.10;;;33.40;;
34212;SDS011;20477;51.390;8.102;2024-03-06T08:47:53;55.17;;;34.10;;
34212;SDS011;20477;51.390;8.102;2024-03-06T08:50:21;58.30;;;34.28;;
34212;SDS011;20477;51.390;8.102;2024-03-06T08:52:50;58.35;;;33.78;;
34212;SDS011;20477;51.390;8.102;2024-03-06T08:55:17;55.33;;;34.97;;
34212;SDS011;20477;51.390;8.102;2024-03-06T08:57:45;64.32;;;36.50;;
34212;SDS011;20477;51.390;8.102;2024-03-06T09:00:12;59.83;;;34.53;;
34212;SDS011;20477;51.390;8.102;2024-03-06T09:02:39;57.50;;;35.40;;
34212;SDS011;20477;51.390;8.102;2024-03-06T09:05:08;58.83;;;32.58;;
34212;SDS011;20477;51.390;8.102;2024-03-06T09:07:36;58.80;;;35.40;;
34212;SDS011;20477;51.390;8.102;2024-03-06T09:10:05;54.42;;;33.55;;
34212;SDS011;20477;51.390;8.102;2024-03-06T09:12:32;57.05;;;34.70;;
34212;SDS011;20477;51.390;8.102;2024-03-06T09:15:00;53.92;;;34.08;;
34212;SDS011;20477;51.390;8.102;2024-03-06T09:17:27;58.78;;;36.10;;
34212;SDS011;20477;51.390;8.102;2024-03-06T09:19:54;56.38;;;34.90;;
34212;SDS011;20477;51.390;8.102;2024-03-06T09:22:35;62.30;;;36.75;;
34212;SDS011;20477;51.390;8.102;2024-03-06T09:25:02;55.13;;;34.40;;
34212;SDS011;20477;51.390;8.102;2024-03-06T09:27:31;62.20;;;35.67;;
34212;SDS011;20477;51.390;8.102;2024-03-06T09:29:58;57.42;;;34.50;;
34212;SDS011;20477;51.390;8.102;2024-03-06T09:32:26;56.05;;;35.78;;
34212;SDS011;20477;51.390;8.102;2024-03-06T09:34:53;57.55;;;34.45;;
34212;SDS011;20477;51.390;8.102;2024-03-06T09:37:20;56.42;;;35.35;;
34212;SDS011;20477;51.390;8.102;2024-03-06T09:39:47;60.67;;;36.60;;
34212;SDS011;20477;51.390;8.102;2024-03-06T09:42:15;57.20;;;36.17;;
34212;SDS011;20477;51.390;8.102;2024-03-06T09:44:43;58.47;;;37.15;;
34212;SDS011;20477;51.390;8.102;2024-03-06T09:47:12;56.05;;;36.35;;
34212;SDS011;20477;51.390;8.102;2024-03-06T09:49:40;61.03;;;37.92;;
34212;SDS011;20477;51.390;8.102;2024-03-06T09:52:08;60.55;;;38.90;;
34212;SDS011;20477;51.390;8.102;2024-03-06T09:54:35;59.75;;;37.38;;
34212;SDS011;20477;51.390;8.102;2024-03-06T09:57:02;62.13;;;39.15;;
34212;SDS011;20477;51.390;8.102;2024-03-06T09:59:30;61.30;;;39.92;;
34212;SDS011;20477;51.390;8.102;2024-03-06T10:01:58;62.78;;;39.60;;
34212;SDS011;20477;51.390;8.102;2024-03-06T10:04:27;63.00;;;39.42;;
34212;SDS011;20477;51.390;8.102;2024-03-06T10:06:55;63.28;;;40.25;;
34212;SDS011;20477;51.390;8.102;2024-03-06T10:09:23;65.72;;;39.05;;
34212;SDS011;20477;51.390;8.102;2024-03-06T10:11:50;59.55;;;37.20;;
34212;SDS011;20477;51.390;8.102;2024-03-06T10:14:18;53.70;;;34.85;;
34212;SDS011;20477;51.390;8.102;2024-03-06T10:16:52;52.85;;;32.67;;
34212;SDS011;20477;51.390;8.102;2024-03-06T10:19:21;48.45;;;30.42;;
34212;SDS011;20477;51.390;8.102;2024-03-06T10:21:49;46.65;;;29.30;;
34212;SDS011;20477;51.390;8.102;2024-03-06T10:24:17;42.25;;;27.00;;
34212;SDS011;20477;51.390;8.102;2024-03-06T10:26:44;44.95;;;28.40;;
34212;SDS011;20477;51.390;8.102;2024-03-06T10:29:14;41.13;;;25.30;;
34212;SDS011;20477;51.390;8.102;2024-03-06T10:31:47;36.47;;;25.02;;
34212;SDS011;20477;51.390;8.102;2024-03-06T10:34:17;36.42;;;25.08;;
34212;SDS011;20477;51.390;8.102;2024-03-06T10:36:45;38.80;;;25.35;;
34212;SDS011;20477;51.390;8.102;2024-03-06T10:39:15;35.85;;;23.85;;
34212;SDS011;20477;51.390;8.102;2024-03-06T10:41:44;34.58;;;23.60;;
34212;SDS011;20477;51.390;8.102;2024-03-06T10:44:12;33.72;;;23.73;;
34212;SDS011;20477;51.390;8.102;2024-03-06T10:46:41;38.83;;;26.17;;
34212;SDS011;20477;51.390;8.102;2024-03-06T10:49:10;36.40;;;23.52;;
34212;SDS011;20477;51.390;8.102;2024-03-06T10:51:38;35.70;;;22.85;;
34212;SDS011;20477;51.390;8.102;2024-03-06T10:54:08;37.10;;;23.85;;
34212;SDS011;20477;51.390;8.102;2024-03-06T10:56:37;38.80;;;23.33;;
34212;SDS011;20477;51.390;8.102;2024-03-06T10:59:05;32.88;;;21.85;;
34212;SDS011;20477;51.390;8.102;2024-03-06T11:01:33;33.30;;;20.25;;
34212;SDS011;20477;51.390;8.102;2024-03-06T11:04:01;33.42;;;21.58;;
34212;SDS011;20477;51.390;8.102;2024-03-06T11:06:28;37.55;;;24.70;;
34212;SDS011;20477;51.390;8.102;2024-03-06T11:08:56;32.58;;;21.88;;
34212;SDS011;20477;51.390;8.102;2024-03-06T11:11:24;30.30;;;20.92;;
34212;SDS011;20477;51.390;8.102;2024-03-06T11:13:54;33.20;;;22.70;;
34212;SDS011;20477;51.390;8.102;2024-03-06T11:16:26;26.55;;;18.90;;
34212;SDS011;20477;51.390;8.102;2024-03-06T11:19:04;22.33;;;14.35;;
34212;SDS011;20477;51.390;8.102;2024-03-06T11:21:31;23.23;;;15.57;;
34212;SDS011;20477;51.390;8.102;2024-03-06T11:24:14;26.95;;;17.63;;
34212;SDS011;20477;51.390;8.102;2024-03-06T11:26:43;29.17;;;18.35;;
34212;SDS011;20477;51.390;8.102;2024-03-06T11:29:13;24.23;;;16.35;;
34212;SDS011;20477;51.390;8.102;2024-03-06T11:31:55;30.42;;;20.58;;
34212;SDS011;20477;51.390;8.102;2024-03-06T11:34:23;33.72;;;22.45;;
34212;SDS011;20477;51.390;8.102;2024-03-06T11:36:53;34.33;;;23.15;;
34212;SDS011;20477;51.390;8.102;2024-03-06T11:39:20;34.70;;;23.08;;
34212;SDS011;20477;51.390;8.102;2024-03-06T11:41:49;37.83;;;24.95;;
34212;SDS011;20477;51.390;8.102;2024-03-06T11:44:18;41.42;;;26.30;;
34212;SDS011;20477;51.390;8.102;2024-03-06T11:46:46;34.63;;;23.48;;
34212;SDS011;20477;51.390;8.102;2024-03-06T11:49:16;35.20;;;25.00;;
34212;SDS011;20477;51.390;8.102;2024-03-06T11:51:44;31.80;;;20.98;;
34212;SDS011;20477;51.390;8.102;2024-03-06T11:54:12;30.35;;;22.30;;
34212;SDS011;20477;51.390;8.102;2024-03-06T11:56:39;36.25;;;23.92;;
34212;SDS011;20477;51.390;8.102;2024-03-06T11:59:08;34.17;;;24.02;;
34212;SDS011;20477;51.390;8.102;2024-03-06T12:01:35;39.15;;;22.90;;
34212;SDS011;20477;51.390;8.102;2024-03-06T12:04:03;32.35;;;21.00;;
34212;SDS011;20477;51.390;8.102;2024-03-06T12:06:31;40.72;;;25.20;;
34212;SDS011;20477;51.390;8.102;2024-03-06T12:08:59;39.65;;;27.00;;
34212;SDS011;20477;51.390;8.102;2024-03-06T12:11:26;38.50;;;25.92;;
34212;SDS011;20477;51.390;8.102;2024-03-06T12:13:54;36.60;;;26.20;;
34212;SDS011;20477;51.390;8.102;2024-03-06T12:16:24;36.88;;;27.02;;
34212;SDS011;20477;51.390;8.102;2024-03-06T12:18:54;36.60;;;25.58;;
34212;SDS011;20477;51.390;8.102;2024-03-06T12:21:21;34.03;;;25.45;;
34212;SDS011;20477;51.390;8.102;2024-03-06T12:23:49;50.30;;;35.78;;
34212;SDS011;20477;51.390;8.102;2024-03-06T12:26:16;56.50;;;38.38;;
34212;SDS011;20477;51.390;8.102;2024-03-06T12:28:44;55.55;;;39.38;;
34212;SDS011;20477;51.390;8.102;2024-03-06T12:31:11;53.95;;;41.25;;
34212;SDS011;20477;51.390;8.102;2024-03-06T12:33:40;55.97;;;41.47;;
34212;SDS011;20477;51.390;8.102;2024-03-06T12:36:08;67.65;;;42.85;;
34212;SDS011;20477;51.390;8.102;2024-03-06T12:38:35;58.60;;;43.15;;
34212;SDS011;20477;51.390;8.102;2024-03-06T12:41:03;57.25;;;42.63;;
34212;SDS011;20477;51.390;8.102;2024-03-06T12:43:30;53.90;;;40.30;;
34212;SDS011;20477;51.390;8.102;2024-03-06T12:45:58;53.47;;;39.60;;
34212;SDS011;20477;51.390;8.102;2024-03-06T12:48:28;52.13;;;40.38;;
34212;SDS011;20477;51.390;8.102;2024-03-06T12:50:57;53.63;;;39.80;;
34212;SDS011;20477;51.390;8.102;2024-03-06T12:53:24;52.42;;;37.40;;
34212;SDS011;20477;51.390;8.102;2024-03-06T12:55:51;50.97;;;38.13;;
34212;SDS011;20477;51.390;8.102;2024-03-06T12:58:19;48.47;;;36.63;;
34212;SDS011;20477;51.390;8.102;2024-03-06T13:00:46;50.40;;;39.00;;
34212;SDS011;20477;51.390;8.102;2024-03-06T13:03:13;52.20;;;37.30;;
34212;SDS011;20477;51.390;8.102;2024-03-06T13:05:41;46.97;;;35.58;;
34212;SDS011;20477;51.390;8.102;2024-03-06T13:08:09;49.05;;;37.85;;
34212;SDS011;20477;51.390;8.102;2024-03-06T13:10:37;51.83;;;37.35;;
34212;SDS011;20477;51.390;8.102;2024-03-06T13:13:04;52.97;;;39.30;;
34212;SDS011;20477;51.390;8.102;2024-03-06T13:15:31;54.08;;;39.50;;
34212;SDS011;20477;51.390;8.102;2024-03-06T13:17:58;51.33;;;40.35;;
34212;SDS011;20477;51.390;8.102;2024-03-06T13:20:26;53.33;;;38.35;;
34212;SDS011;20477;51.390;8.102;2024-03-06T13:22:53;54.50;;;39.28;;
34212;SDS011;20477;51.390;8.102;2024-03-06T13:25:22;55.13;;;40.88;;
34212;SDS011;20477;51.390;8.102;2024-03-06T13:27:49;56.22;;;40.58;;
34212;SDS011;20477;51.390;8.102;2024-03-06T13:30:17;56.28;;;41.00;;
34212;SDS011;20477;51.390;8.102;2024-03-06T13:32:44;52.60;;;39.55;;
34212;SDS011;20477;51.390;8.102;2024-03-06T13:35:12;54.90;;;42.08;;
34212;SDS011;20477;51.390;8.102;2024-03-06T13:37:40;57.83;;;40.47;;
34212;SDS011;20477;51.390;8.102;2024-03-06T13:40:08;50.38;;;39.70;;
34212;SDS011;20477;51.390;8.102;2024-03-06T13:42:37;49.92;;;39.35;;
34212;SDS011;20477;51.390;8.102;2024-03-06T13:45:05;55.38;;;40.75;;
34212;SDS011;20477;51.390;8.102;2024-03-06T13:47:32;51.28;;;38.53;;
34212;SDS011;20477;51.390;8.102;2024-03-06T13:49:59;51.90;;;37.58;;
34212;SDS011;20477;51.390;8.102;2024-03-06T13:52:27;53.80;;;39.67;;
34212;SDS011;20477;51.390;8.102;2024-03-06T13:54:54;51.25;;;38.97;;
34212;SDS011;20477;51.390;8.102;2024-03-06T13:57:21;52.80;;;39.30;;
34212;SDS011;20477;51.390;8.102;2024-03-06T13:59:50;46.72;;;34.63;;
34212;SDS011;20477;51.390;8.102;2024-03-06T14:02:17;43.53;;;32.72;;
34212;SDS011;20477;51.390;8.102;2024-03-06T14:04:45;41.10;;;31.45;;
34212;SDS011;20477;51.390;8.102;2024-03-06T14:07:12;42.97;;;29.10;;
34212;SDS011;20477;51.390;8.102;2024-03-06T14:09:39;36.70;;;25.25;;
34212;SDS011;20477;51.390;8.102;2024-03-06T14:12:07;41.58;;;27.98;;
34212;SDS011;20477;51.390;8.102;2024-03-06T14:14:35;40.85;;;29.25;;
34212;SDS011;20477;51.390;8.102;2024-03-06T14:17:03;38.75;;;27.08;;
34212;SDS011;20477;51.390;8.102;2024-03-06T14:19:31;36.88;;;27.13;;
34212;SDS011;20477;51.390;8.102;2024-03-06T14:21:58;37.05;;;26.90;;
34212;SDS011;20477;51.390;8.102;2024-03-06T14:24:29;33.95;;;25.42;;
34212;SDS011;20477;51.390;8.102;2024-03-06T14:26:57;37.00;;;27.63;;
34212;SDS011;20477;51.390;8.102;2024-03-06T14:29:24;36.33;;;25.77;;